createdAt,value
2022-11-16T00:02:16.322Z,37.00
2022-11-16T00:04:43.998Z,35.47
2022-11-16T00:07:11.775Z,36.67
2022-11-16T00:09:39.490Z,38.57
2022-11-16T00:12:10.989Z,45.63
2022-11-16T00:14:38.549Z,44.43
2022-11-16T00:17:06.197Z,43.90
2022-11-16T00:19:33.718Z,38.23
2022-11-16T00:22:01.278Z,38.07
2022-11-16T00:24:28.800Z,35.63
2022-11-16T00:26:56.646Z,37.70
2022-11-16T00:29:26.626Z,36.77
2022-11-16T00:31:55.551Z,42.13
2022-11-16T00:34:24.656Z,40.80
2022-11-16T00:36:52.501Z,39.33
2022-11-16T00:39:20.932Z,35.83
2022-11-16T00:41:49.691Z,36.10
2022-11-16T00:44:18.904Z,38.30
2022-11-16T00:46:46.562Z,34.07
2022-11-16T00:49:14.298Z,37.13
2022-11-16T00:51:42.137Z,35.00
2022-11-16T00:54:10.734Z,35.90
2022-11-16T00:56:39.740Z,33.37
2022-11-16T00:59:07.871Z,36.63
2022-11-16T01:01:35.426Z,35.67
2022-11-16T01:04:03.136Z,35.30
2022-11-16T01:06:30.778Z,37.27
2022-11-16T01:08:58.280Z,41.13
2022-11-16T01:11:44.249Z,42.80
2022-11-16T01:14:12.093Z,37.90
2022-11-16T01:16:39.962Z,33.57
2022-11-16T01:19:08.513Z,35.10
2022-11-16T01:21:36.881Z,59.87
2022-11-16T01:24:04.608Z,54.80
2022-11-16T01:26:32.119Z,47.40
2022-11-16T01:29:00.240Z,45.17
2022-11-16T01:31:32.142Z,38.70
2022-11-16T01:34:01.245Z,38.93
2022-11-16T01:36:30.165Z,36.80
2022-11-16T01:39:00.266Z,36.83
2022-11-16T01:41:34.197Z,36.97
2022-11-16T01:44:26.864Z,38.83
2022-11-16T01:46:59.551Z,38.93
2022-11-16T01:49:33.053Z,36.17
2022-11-16T01:52:10.114Z,38.27
2022-11-16T01:54:43.443Z,40.13
2022-11-16T01:57:18.194Z,40.47
2022-11-16T02:00:00.692Z,35.40
2022-11-16T02:02:42.025Z,39.37
2022-11-16T02:05:27.426Z,34.63
2022-11-16T02:08:48.987Z,32.67
2022-11-16T02:11:27.314Z,32.30
2022-11-16T02:14:00.978Z,36.90
2022-11-16T02:16:34.337Z,31.53
2022-11-16T02:19:23.796Z,30.00
2022-11-16T02:22:46.585Z,32.73
2022-11-16T02:26:09.057Z,33.43
2022-11-16T02:29:19.857Z,29.50
2022-11-16T02:32:15.484Z,35.53
2022-11-16T02:35:00.864Z,30.17
2022-11-16T02:37:35.204Z,32.80
2022-11-16T02:40:09.446Z,34.30
2022-11-16T02:42:45.783Z,32.67
2022-11-16T02:45:20.428Z,35.80
2022-11-16T02:47:50.890Z,38.13
2022-11-16T02:50:21.577Z,33.60
2022-11-16T02:52:49.356Z,30.77
2022-11-16T02:55:18.101Z,31.70
2022-11-16T02:58:02.558Z,32.93
2022-11-16T03:00:52.090Z,32.13
2022-11-16T03:03:51.006Z,28.30
2022-11-16T03:06:24.985Z,30.83
2022-11-16T03:09:12.540Z,29.90
2022-11-16T03:12:02.982Z,30.33
2022-11-16T03:14:45.983Z,32.80
2022-11-16T03:17:30.532Z,30.57
2022-11-16T03:20:17.748Z,39.57
2022-11-16T03:22:55.351Z,59.63
2022-11-16T03:25:29.685Z,41.27
2022-11-16T03:28:13.705Z,45.20
2022-11-16T03:30:50.028Z,47.77
2022-11-16T03:33:33.122Z,39.00
2022-11-16T03:36:28.130Z,50.07
2022-11-16T03:39:03.445Z,56.27
2022-11-16T03:41:36.828Z,50.80
2022-11-16T03:44:05.273Z,48.67
2022-11-16T03:46:32.784Z,43.53
2022-11-16T03:49:01.995Z,41.33
2022-11-16T03:51:34.415Z,40.97
2022-11-16T03:54:02.349Z,38.67
2022-11-16T03:56:29.938Z,41.77
2022-11-16T03:58:57.660Z,41.97
2022-11-16T04:01:25.281Z,38.77
2022-11-16T04:03:53.991Z,48.17
2022-11-16T04:06:50.571Z,49.63
2022-11-16T04:09:56.376Z,72.73
2022-11-16T04:12:42.676Z,48.77
2022-11-16T04:15:29.917Z,50.50
2022-11-16T04:18:17.511Z,52.57
2022-11-16T04:21:04.456Z,86.60
2022-11-16T04:23:51.057Z,59.20
2022-11-16T04:26:18.983Z,68.10
2022-11-16T04:28:47.494Z,100.77
2022-11-16T04:31:54.149Z,96.57
2022-11-16T04:34:40.215Z,77.37
2022-11-16T04:37:36.383Z,104.17
2022-11-16T04:40:06.187Z,86.13
2022-11-16T04:42:33.809Z,84.23
2022-11-16T04:45:19.802Z,85.30
2022-11-16T04:47:52.272Z,149.87
2022-11-16T04:50:21.935Z,101.67
2022-11-16T04:52:52.062Z,102.37
2022-11-16T04:55:21.028Z,88.00
2022-11-16T04:57:49.980Z,85.67
2022-11-16T05:00:18.970Z,72.67
2022-11-16T05:02:46.970Z,79.10
2022-11-16T05:05:15.001Z,79.90
2022-11-16T05:07:44.855Z,76.47
2022-11-16T05:10:19.395Z,122.10
2022-11-16T05:12:54.219Z,97.97
2022-11-16T05:15:22.806Z,131.50
2022-11-16T05:17:51.439Z,100.10
2022-11-16T05:20:41.543Z,123.87
2022-11-16T05:23:29.329Z,130.57
2022-11-16T05:26:01.445Z,188.13
2022-11-16T05:28:29.559Z,157.00
2022-11-16T05:30:57.826Z,263.90
2022-11-16T05:33:27.654Z,129.90
2022-11-16T05:35:55.264Z,167.20
2022-11-16T05:38:23.260Z,162.73
2022-11-16T05:40:55.260Z,230.27
2022-11-16T05:43:22.868Z,234.03
2022-11-16T05:46:01.433Z,139.33
2022-11-16T05:48:29.017Z,215.83
2022-11-16T05:51:01.135Z,251.93
2022-11-16T05:53:33.397Z,55.57
2022-11-16T05:56:03.083Z,162.17
2022-11-16T05:58:34.573Z,231.37
2022-11-16T06:01:02.520Z,164.80
2022-11-16T06:03:31.489Z,170.10
2022-11-16T06:06:00.275Z,173.10
2022-11-16T06:08:30.222Z,102.53
2022-11-16T06:11:05.638Z,162.93
2022-11-16T06:13:35.975Z,153.40
2022-11-16T06:16:05.388Z,46.77
2022-11-16T06:18:41.305Z,60.93
2022-11-16T06:21:10.845Z,27.30
2022-11-16T06:23:39.039Z,94.23
2022-11-16T06:26:07.751Z,28.90
2022-11-16T06:28:37.322Z,107.70
2022-11-16T06:31:05.700Z,41.13
2022-11-16T06:33:37.617Z,128.53
2022-11-16T06:36:09.888Z,80.50
2022-11-16T06:38:38.527Z,110.57
2022-11-16T06:41:06.278Z,50.73
2022-11-16T06:43:39.583Z,48.43
2022-11-16T06:46:07.588Z,40.60
2022-11-16T06:48:35.532Z,79.07
2022-11-16T06:51:07.832Z,45.30
2022-11-16T06:53:35.703Z,43.80
2022-11-16T06:56:05.867Z,69.27
2022-11-16T06:58:42.785Z,125.20
2022-11-16T07:01:12.819Z,160.00
2022-11-16T07:03:42.499Z,37.10
2022-11-16T07:06:13.199Z,73.07
2022-11-16T07:08:44.333Z,50.03
2022-11-16T07:11:13.270Z,41.97
2022-11-16T07:13:40.816Z,72.07
2022-11-16T07:16:11.953Z,82.63
2022-11-16T07:18:45.278Z,47.37
2022-11-16T07:21:16.540Z,67.77
2022-11-16T07:23:44.942Z,44.80
2022-11-16T07:26:17.877Z,39.63
2022-11-16T07:28:54.670Z,44.83
2022-11-16T07:31:23.471Z,59.87
2022-11-16T07:34:10.831Z,45.23
2022-11-16T07:36:49.566Z,56.67
2022-11-16T07:39:18.077Z,36.53
2022-11-16T07:41:47.032Z,32.20
2022-11-16T07:44:46.343Z,38.03
2022-11-16T07:47:15.205Z,36.27
2022-11-16T07:49:45.818Z,40.47
2022-11-16T07:52:19.174Z,52.03
2022-11-16T07:55:02.435Z,55.23
2022-11-16T07:57:31.185Z,47.97
2022-11-16T08:00:01.992Z,58.23
2022-11-16T08:02:40.915Z,100.60
2022-11-16T08:05:12.056Z,60.87
2022-11-16T08:07:40.561Z,65.33
2022-11-16T08:10:10.077Z,63.87
2022-11-16T08:12:37.607Z,52.23
2022-11-16T08:15:07.294Z,69.37
2022-11-16T08:17:34.831Z,68.23
2022-11-16T08:20:05.033Z,70.00
2022-11-16T08:22:32.547Z,66.40
2022-11-16T08:25:00.093Z,74.10
2022-11-16T08:27:27.631Z,62.73
2022-11-16T08:29:57.573Z,64.43
2022-11-16T08:32:25.113Z,64.27
2022-11-16T08:34:54.637Z,61.87
2022-11-16T08:37:22.746Z,67.50
2022-11-16T08:39:50.329Z,53.87
2022-11-16T08:42:19.646Z,71.33
2022-11-16T08:44:49.387Z,58.73
2022-11-16T08:47:19.400Z,52.50
2022-11-16T08:49:53.765Z,50.13
2022-11-16T08:52:22.986Z,43.43
2022-11-16T08:54:51.979Z,45.00
2022-11-16T08:57:19.545Z,45.83
2022-11-16T08:59:52.394Z,38.83
2022-11-16T09:02:25.514Z,37.50
2022-11-16T09:04:53.833Z,35.33
2022-11-16T09:07:21.928Z,51.17
2022-11-16T09:09:49.676Z,53.97
2022-11-16T09:12:17.844Z,42.67
2022-11-16T09:14:45.339Z,41.27
2022-11-16T09:17:12.813Z,43.97
2022-11-16T09:19:40.820Z,35.97
2022-11-16T09:22:08.678Z,31.03
2022-11-16T09:24:36.157Z,31.73
2022-11-16T09:27:03.776Z,35.40
2022-11-16T09:29:31.332Z,29.57
2022-11-16T09:32:00.227Z,31.47
2022-11-16T09:34:28.418Z,33.13
2022-11-16T09:36:58.703Z,35.63
2022-11-16T09:39:30.952Z,32.77
2022-11-16T09:42:20.055Z,33.33
2022-11-16T09:45:20.688Z,32.07
2022-11-16T09:47:57.566Z,32.13
2022-11-16T09:50:54.899Z,31.67
2022-11-16T09:53:45.037Z,35.17
2022-11-16T09:56:22.791Z,32.73
2022-11-16T09:59:12.209Z,33.30
2022-11-16T10:01:53.982Z,34.70
2022-11-16T10:04:37.015Z,32.43
2022-11-16T10:07:35.086Z,34.07
2022-11-16T10:10:02.757Z,31.33
2022-11-16T10:13:23.698Z,34.50
2022-11-16T10:16:32.439Z,34.13
2022-11-16T10:19:54.300Z,34.30
2022-11-16T10:22:43.885Z,31.10
2022-11-16T10:25:17.146Z,28.17
2022-11-16T10:28:24.054Z,30.40
2022-11-16T10:31:18.943Z,30.73
2022-11-16T10:33:50.961Z,31.37
2022-11-16T10:36:21.557Z,29.43
2022-11-16T10:38:49.342Z,32.70
2022-11-16T10:41:26.347Z,32.73
2022-11-16T10:43:58.242Z,33.13
2022-11-16T10:46:36.457Z,29.13
2022-11-16T10:49:48.015Z,30.53
2022-11-16T10:52:15.546Z,33.33
2022-11-16T10:54:44.474Z,30.50
2022-11-16T10:57:14.955Z,29.73
2022-11-16T10:59:56.346Z,29.27
2022-11-16T11:02:26.505Z,31.93
2022-11-16T11:05:08.173Z,30.17
2022-11-16T11:07:40.505Z,28.00
2022-11-16T11:10:36.201Z,29.90
2022-11-16T11:13:26.941Z,28.87
2022-11-16T11:16:16.230Z,30.33
2022-11-16T11:18:43.966Z,31.27
2022-11-16T11:21:24.236Z,26.80
2022-11-16T11:24:10.857Z,32.40
2022-11-16T11:26:52.298Z,30.13
2022-11-16T11:29:24.315Z,29.33
2022-11-16T11:32:00.357Z,30.10
2022-11-16T11:34:32.204Z,28.63
2022-11-16T11:37:04.586Z,57.80
2022-11-16T11:39:37.697Z,27.87
2022-11-16T11:42:13.771Z,35.50
2022-11-16T11:44:49.729Z,29.03
2022-11-16T11:47:58.589Z,28.73
2022-11-16T11:51:03.453Z,29.90
2022-11-16T11:53:57.116Z,30.10
2022-11-16T11:56:26.939Z,29.33
2022-11-16T11:58:55.776Z,29.87
2022-11-16T12:01:50.434Z,30.63
2022-11-16T12:04:35.462Z,28.63
2022-11-16T12:07:23.787Z,29.70
2022-11-16T12:10:18.301Z,36.10
2022-11-16T12:12:57.456Z,34.10
2022-11-16T12:15:36.095Z,33.77
2022-11-16T12:18:50.346Z,30.53
2022-11-16T12:22:09.934Z,29.77
2022-11-16T12:25:08.272Z,30.37
2022-11-16T12:28:21.835Z,31.77
2022-11-16T12:31:12.641Z,29.33
2022-11-16T12:33:54.805Z,27.47
2022-11-16T12:36:55.762Z,29.30
2022-11-16T12:40:08.162Z,24.93
2022-11-16T12:43:23.382Z,28.80
2022-11-16T12:46:48.146Z,29.80
2022-11-16T12:49:36.334Z,27.08
2022-11-16T12:52:26.699Z,27.50
2022-11-16T13:01:41.966Z,27.00
2022-11-16T13:04:24.812Z,28.67
2022-11-16T13:07:17.308Z,36.57
2022-11-16T13:09:51.585Z,35.15
2022-11-16T13:12:23.561Z,33.67
2022-11-16T13:14:54.951Z,27.42
2022-11-16T13:17:28.425Z,25.08
2022-11-16T13:20:40.535Z,27.98
2022-11-16T13:23:13.291Z,40.67
2022-11-16T13:25:57.290Z,43.65
2022-11-16T13:28:43.322Z,27.33
2022-11-16T13:31:36.104Z,28.92
2022-11-16T13:34:28.678Z,34.45
2022-11-16T13:36:56.153Z,29.42
2022-11-16T13:39:58.352Z,27.43
2022-11-16T13:42:27.924Z,29.27
2022-11-16T13:45:18.214Z,29.33
2022-11-16T13:47:55.098Z,33.63
2022-11-16T13:50:37.460Z,31.00
2022-11-16T13:54:04.069Z,41.43
2022-11-16T13:56:05.063Z,38.60
2022-11-16T13:58:35.512Z,36.83
2022-11-16T14:01:07.472Z,46.17
2022-11-16T14:03:40.843Z,49.90
2022-11-16T14:06:13.923Z,39.13
2022-11-16T14:08:44.723Z,36.03
2022-11-16T14:11:35.858Z,40.17
2022-11-16T14:15:12.708Z,49.27
2022-11-16T14:18:11.934Z,81.47
2022-11-16T14:20:58.122Z,100.73
2022-11-16T14:23:53.557Z,85.27
2022-11-16T14:26:45.646Z,46.30
2022-11-16T14:29:25.746Z,48.47
2022-11-16T14:31:58.277Z,53.80
2022-11-16T14:34:47.387Z,50.77
2022-11-16T14:37:28.344Z,55.80
2022-11-16T14:40:21.829Z,54.30
2022-11-16T14:43:19.826Z,55.87
2022-11-16T14:46:06.444Z,60.80
2022-11-16T14:48:45.355Z,61.23
2022-11-16T14:51:37.611Z,52.17
2022-11-16T14:54:27.348Z,48.00
2022-11-16T14:57:02.910Z,46.00
2022-11-16T14:59:31.772Z,53.90
2022-11-16T15:02:33.836Z,57.87
2022-11-16T15:05:01.482Z,58.37
2022-11-16T15:07:30.840Z,76.17
2022-11-16T15:10:01.310Z,97.27
2022-11-16T15:12:41.818Z,130.60
2022-11-16T15:15:17.046Z,144.83
2022-11-16T15:17:59.369Z,132.20
2022-11-16T15:20:35.118Z,111.17
2022-11-16T15:23:05.497Z,108.50
2022-11-16T15:25:35.230Z,105.40
2022-11-16T15:28:14.940Z,91.17
2022-11-16T15:30:49.858Z,75.23
2022-11-16T15:33:27.580Z,75.57
2022-11-16T15:35:56.004Z,72.60
2022-11-16T15:38:32.543Z,59.63
2022-11-16T15:41:05.482Z,61.80
2022-11-16T15:43:55.290Z,54.00
2022-11-16T15:46:33.130Z,75.60
2022-11-16T15:49:01.298Z,49.63
2022-11-16T15:51:32.554Z,53.63
2022-11-16T15:54:30.185Z,45.37
2022-11-16T15:57:12.098Z,45.47
2022-11-16T15:59:39.960Z,42.73
2022-11-16T16:02:20.126Z,41.17
2022-11-16T16:04:47.870Z,49.80
2022-11-16T16:07:42.541Z,48.43
2022-11-16T16:10:20.477Z,46.97
2022-11-16T16:12:52.319Z,43.83
2022-11-16T16:15:29.894Z,41.57
2022-11-16T16:18:38.321Z,48.90
2022-11-16T16:21:06.410Z,52.03
2022-11-16T16:23:43.656Z,53.30
2022-11-16T16:26:11.577Z,43.53
2022-11-16T16:28:39.624Z,42.67
2022-11-16T16:31:07.873Z,40.13
2022-11-16T16:33:37.529Z,44.10
2022-11-16T16:36:08.747Z,40.10
2022-11-16T16:38:44.282Z,43.83
2022-11-16T16:41:24.852Z,38.87
2022-11-16T16:43:54.090Z,40.83
2022-11-16T16:46:22.696Z,42.57
2022-11-16T16:48:58.290Z,41.50
2022-11-16T16:51:27.031Z,45.53
2022-11-16T16:53:57.760Z,44.03
2022-11-16T16:56:26.358Z,48.87
2022-11-16T16:58:54.583Z,47.60
2022-11-16T17:01:23.882Z,53.47
2022-11-16T17:03:51.628Z,55.07
2022-11-16T17:06:21.485Z,61.50
2022-11-16T17:08:49.849Z,50.93
2022-11-16T17:11:19.129Z,51.17
2022-11-16T17:13:47.126Z,45.83
2022-11-16T17:16:17.962Z,44.13
2022-11-16T17:18:47.938Z,47.27
2022-11-16T17:21:16.515Z,38.53
2022-11-16T17:23:45.114Z,42.80
2022-11-16T17:26:13.306Z,44.77
2022-11-16T17:28:40.971Z,49.67
2022-11-16T17:31:11.525Z,49.30
2022-11-16T17:33:42.316Z,50.37
2022-11-16T17:36:13.997Z,49.97
2022-11-16T17:38:41.850Z,52.77
2022-11-16T17:41:13.327Z,48.97
2022-11-16T17:43:43.465Z,44.63
2022-11-16T17:46:17.647Z,43.50
2022-11-16T17:48:47.800Z,41.47
2022-11-16T17:51:24.471Z,42.57
2022-11-16T17:53:55.369Z,47.67
2022-11-16T17:56:28.024Z,46.23
2022-11-16T17:59:04.904Z,53.37
2022-11-16T18:01:33.855Z,52.77
2022-11-16T18:04:02.593Z,79.07
2022-11-16T18:06:33.537Z,100.23
2022-11-16T18:09:02.663Z,125.90
2022-11-16T18:11:33.025Z,141.80
2022-11-16T18:14:01.975Z,110.03
2022-11-16T18:16:36.091Z,105.00
2022-11-16T18:19:07.518Z,93.43
2022-11-16T18:21:46.840Z,70.37
2022-11-16T18:24:15.650Z,51.60
2022-11-16T18:26:43.864Z,51.33
2022-11-16T18:29:36.353Z,36.03
2022-11-16T18:32:27.076Z,35.70
2022-11-16T18:34:56.801Z,34.13
2022-11-16T18:37:28.414Z,37.47
2022-11-16T18:40:01.157Z,42.13
2022-11-16T18:42:28.618Z,43.17
2022-11-16T18:44:59.002Z,43.33
2022-11-16T18:47:26.441Z,45.43
2022-11-16T18:49:53.966Z,41.40
2022-11-16T18:52:21.452Z,42.07
2022-11-16T18:54:48.956Z,50.03
2022-11-16T18:57:16.416Z,46.13
2022-11-16T18:59:43.909Z,48.53
2022-11-16T19:02:12.644Z,48.87
2022-11-16T19:04:40.739Z,48.23
2022-11-16T19:07:08.260Z,49.80
2022-11-16T19:09:35.718Z,53.60
2022-11-16T19:12:04.386Z,49.27
2022-11-16T19:14:31.874Z,49.27
2022-11-16T19:16:59.653Z,67.87
2022-11-16T19:19:29.222Z,67.00
2022-11-16T19:21:58.111Z,62.03
2022-11-16T19:24:27.954Z,73.73
2022-11-16T19:26:55.585Z,75.00
2022-11-16T19:29:23.049Z,68.80
2022-11-16T19:31:50.562Z,78.00
2022-11-16T19:34:18.116Z,66.70
2022-11-16T19:36:47.794Z,71.87
2022-11-16T19:39:36.536Z,67.23
2022-11-16T19:42:04.868Z,67.23
2022-11-16T19:44:32.388Z,64.87
2022-11-16T19:47:00.524Z,54.27
2022-11-16T19:49:28.515Z,50.40
2022-11-16T19:51:56.230Z,56.47
2022-11-16T19:54:25.145Z,52.77
2022-11-16T19:56:55.272Z,48.00
2022-11-16T19:59:23.042Z,50.73
2022-11-16T20:01:50.505Z,42.43
2022-11-16T20:04:18.001Z,45.07
2022-11-16T20:06:45.483Z,45.33
2022-11-16T20:09:13.092Z,41.77
2022-11-16T20:11:42.319Z,48.50
2022-11-16T20:14:12.010Z,46.63
2022-11-16T20:16:42.032Z,68.53
2022-11-16T20:19:11.088Z,58.03
2022-11-16T20:21:42.272Z,66.23
2022-11-16T20:24:15.916Z,61.17
2022-11-16T20:26:47.070Z,57.37
2022-11-16T20:29:17.658Z,51.73
2022-11-16T20:31:47.159Z,48.50
2022-11-16T20:34:20.436Z,48.47
2022-11-16T20:36:51.336Z,55.10
2022-11-16T20:39:21.578Z,47.90
2022-11-16T20:41:49.240Z,48.67
2022-11-16T20:44:21.411Z,49.30
2022-11-16T20:46:52.571Z,55.60
2022-11-16T20:49:20.900Z,47.90
2022-11-16T20:51:49.606Z,59.70
2022-11-16T20:54:19.855Z,43.53
2022-11-16T20:56:49.570Z,45.03
2022-11-16T20:59:17.601Z,43.00
2022-11-16T21:01:48.198Z,45.30
2022-11-16T21:04:16.574Z,42.60
2022-11-16T21:06:44.063Z,41.87
2022-11-16T21:09:15.605Z,43.03
2022-11-16T21:12:01.388Z,45.20
2022-11-16T21:14:29.236Z,45.90
2022-11-16T21:16:56.883Z,56.20
2022-11-16T21:19:24.388Z,53.80
2022-11-16T21:21:51.921Z,52.30
2022-11-16T21:24:21.821Z,61.67
2022-11-16T21:26:51.028Z,61.43
2022-11-16T21:29:18.507Z,62.90
2022-11-16T21:31:46.032Z,54.10
2022-11-16T21:34:14.027Z,53.93
2022-11-16T21:36:44.231Z,63.43
2022-11-16T21:39:11.702Z,68.77
2022-11-16T21:41:39.200Z,66.97
2022-11-16T21:44:06.789Z,68.63
2022-11-16T21:46:34.305Z,75.77
2022-11-16T21:49:01.849Z,75.90
2022-11-16T21:51:30.851Z,79.47
2022-11-16T21:53:58.460Z,78.53
2022-11-16T21:56:29.326Z,94.90
2022-11-16T21:58:56.917Z,90.23
2022-11-16T22:01:45.809Z,81.17
2022-11-16T22:04:32.881Z,67.13
2022-11-16T22:07:32.801Z,67.17
2022-11-16T22:10:02.557Z,62.17
2022-11-16T22:12:30.275Z,61.27
2022-11-16T22:15:01.942Z,58.73
2022-11-16T22:17:30.314Z,57.13
2022-11-16T22:19:57.829Z,73.00
2022-11-16T22:22:25.669Z,67.10
2022-11-16T22:24:53.180Z,63.53
2022-11-16T22:27:20.791Z,54.57
2022-11-16T22:29:48.775Z,56.77
2022-11-16T22:32:16.297Z,62.07
2022-11-16T22:34:43.774Z,60.00
2022-11-16T22:37:11.301Z,57.90
2022-11-16T22:39:39.255Z,56.50
2022-11-16T22:42:06.953Z,50.60
2022-11-16T22:44:34.470Z,55.07
2022-11-16T22:47:02.003Z,58.50
2022-11-16T22:49:29.478Z,46.80
2022-11-16T22:51:56.914Z,46.50
2022-11-16T22:54:28.487Z,40.47
2022-11-16T22:56:56.366Z,42.20
2022-11-16T22:59:23.845Z,44.83
2022-11-16T23:01:51.249Z,42.53
2022-11-16T23:04:18.638Z,52.07
2022-11-16T23:06:46.405Z,43.30
2022-11-16T23:09:13.820Z,39.30
2022-11-16T23:11:59.915Z,45.63
2022-11-16T23:14:46.075Z,49.50
2022-11-16T23:17:13.471Z,50.00
2022-11-16T23:19:59.352Z,46.43
2022-11-16T23:22:45.301Z,41.00
2022-11-16T23:25:32.012Z,64.00
2022-11-16T23:28:07.233Z,95.47
2022-11-16T23:30:35.684Z,48.23
2022-11-16T23:33:04.101Z,46.03
2022-11-16T23:35:31.604Z,53.13
2022-11-16T23:38:04.718Z,44.30
2022-11-16T23:40:38.568Z,55.40
2022-11-16T23:43:26.237Z,43.17
2022-11-16T23:45:54.758Z,44.60
2022-11-16T23:48:22.168Z,48.10
2022-11-16T23:50:49.583Z,48.00
2022-11-16T23:53:17.643Z,51.97
2022-11-16T23:55:45.056Z,44.10
2022-11-16T23:58:14.869Z,45.10
